TN61 weather

Ranger Heliport
Bartlett, Tennessee, United States

Public forecast

Using degrees Fahrenheit for public forecast. Weather courtesy of forecast.io.

METAR (pilot weather report)

Closest report is Millington-Memphis Airport, 9.3 nm (17.2 km) N. Retrieved 2019/06/18 17:50 UTC (48 minutes ago):

KNQA 181750Z 15004KT 10SM SCT016 BKN027 BKN085 26/22 A2991

TAF (pilot weather forecast)

Closest forecast is Memphis International Airport, 10.9 nm (20.3 km) SSW. Retrieved 2019/06/18 18:34 UTC (4 minutes ago):

TAF KMEM 181732Z 1818/1924 21005KT P6SM VCSH SCT012 BKN030 TEMPO 1818/1819 BKN015 FM182200 23006KT P6SM VCTS SCT030CB BKN060 FM190100 22005KT P6SM VCSH SCT030 BKN100 FM190600 20004KT P6SM SCT020 BKN050 TEMPO 1909/1913 4SM BR BKN020 FM191600 22009KT P6SM VCSH SCT030 BKN100